Time;durP1;ratioP1;P1;durP2;ratioP2;P2;SDS_P1;SDS_P2;PMS_P1;PMS_P2;Temp;Humidity;BMP_temperature;BMP_pressure;BME280_temperature;BME280_humidity;BME280_pressure;Samples;Min_cycle;Max_cycle;Signal;HPM_P1;HPM_P2
2021/11/29 00:02:06;;;;;;;7.23;1.80;;;0.70;99.90;;;;;;5068932;28;20049;-72
2021/11/29 00:04:32;;;;;;;5.73;1.87;;;0.80;99.90;;;;;;5069274;28;20052;-72
2021/11/29 00:07:01;;;;;;;10.00;2.50;;;0.80;99.90;;;;;;5038155;28;20449;-73
2021/11/29 00:09:27;;;;;;;10.07;2.27;;;0.90;99.90;;;;;;5052868;28;20560;-72
2021/11/29 00:11:53;;;;;;;7.47;2.13;;;0.90;99.90;;;;;;5069474;28;20040;-72
2021/11/29 00:14:19;;;;;;;7.97;1.90;;;0.90;99.90;;;;;;5069153;28;20106;-72
2021/11/29 00:16:44;;;;;;;11.07;2.20;;;0.90;99.90;;;;;;5068950;28;20048;-72
2021/11/29 00:19:10;;;;;;;7.23;2.00;;;1.00;99.90;;;;;;5051950;28;20053;-71
2021/11/29 00:21:36;;;;;;;7.17;1.80;;;1.10;99.90;;;;;;5034998;28;20045;-72
2021/11/29 00:24:03;;;;;;;6.87;1.87;;;1.10;99.90;;;;;;5052412;28;20491;-72
2021/11/29 00:26:29;;;;;;;7.23;2.07;;;1.20;99.90;;;;;;5068597;28;20048;-72
2021/11/29 00:28:55;;;;;;;8.23;2.10;;;1.20;99.90;;;;;;5063796;28;20510;-73
2021/11/29 00:31:21;;;;;;;8.90;1.83;;;1.20;99.90;;;;;;5082429;28;20084;-72
2021/11/29 00:33:47;;;;;;;6.73;1.93;;;1.20;99.90;;;;;;5081131;28;20060;-73
2021/11/29 00:36:15;;;;;;;9.47;2.00;;;1.20;99.90;;;;;;5072959;28;20122;-72
2021/11/29 00:38:41;;;;;;;7.40;1.70;;;1.30;99.90;;;;;;5089376;28;20051;-72
2021/11/29 00:41:08;;;;;;;7.13;1.60;;;1.20;99.90;;;;;;5072109;28;20101;-72
2021/11/29 00:43:34;;;;;;;7.23;1.70;;;1.20;99.90;;;;;;5071939;28;20052;-73
2021/11/29 00:46:00;;;;;;;7.17;2.03;;;1.10;99.90;;;;;;5052972;28;20473;-74
2021/11/29 00:48:25;;;;;;;5.73;1.67;;;1.20;99.90;;;;;;5036037;28;20084;-73
2021/11/29 00:50:51;;;;;;;6.63;1.50;;;1.20;99.90;;;;;;5052496;28;20047;-72
2021/11/29 00:53:17;;;;;;;5.67;1.60;;;1.20;99.90;;;;;;5067920;28;20048;-72
2021/11/29 00:55:43;;;;;;;7.17;1.60;;;1.30;99.90;;;;;;5051442;28;20044;-72
2021/11/29 00:58:09;;;;;;;9.17;2.13;;;1.40;99.90;;;;;;5051187;28;20051;-72
2021/11/29 01:00:37;;;;;;;8.40;1.87;;;1.40;99.90;;;;;;5067773;28;20167;-72
2021/11/29 01:03:03;;;;;;;7.50;2.10;;;1.40;99.90;;;;;;5068151;28;20044;-72
2021/11/29 01:05:30;;;;;;;6.37;1.80;;;1.50;99.90;;;;;;5068013;28;20077;-73
2021/11/29 01:07:57;;;;;;;5.73;1.20;;;1.60;99.90;;;;;;5051006;28;20048;-72
2021/11/29 01:10:27;;;;;;;7.30;1.80;;;1.70;99.90;;;;;;5068083;28;20055;-72
2021/11/29 01:12:53;;;;;;;6.18;1.30;;;1.70;99.90;;;;;;5067712;28;20048;-72
2021/11/29 01:15:21;;;;;;;6.23;1.53;;;1.80;99.90;;;;;;5068068;28;20155;-72
2021/11/29 01:17:47;;;;;;;8.17;1.70;;;1.80;99.90;;;;;;5050782;28;20048;-72
2021/11/29 01:20:14;;;;;;;6.50;1.83;;;1.70;99.90;;;;;;5051050;28;20045;-72
2021/11/29 01:22:41;;;;;;;7.13;1.40;;;1.70;99.90;;;;;;5050978;28;20057;-72
2021/11/29 01:25:08;;;;;;;5.43;1.63;;;1.70;99.90;;;;;;5034304;28;20784;-72
2021/11/29 01:27:34;;;;;;;10.03;1.50;;;1.70;99.90;;;;;;5033260;28;20143;-72
2021/11/29 01:30:00;;;;;;;6.83;1.80;;;1.80;99.90;;;;;;5050607;28;20084;-71
2021/11/29 01:32:25;;;;;;;6.33;1.60;;;1.70;99.90;;;;;;5043702;28;20075;-71
2021/11/29 01:34:51;;;;;;;6.23;1.30;;;1.70;99.90;;;;;;5066984;28;20075;-72
2021/11/29 01:37:17;;;;;;;8.70;1.63;;;1.70;99.90;;;;;;5034677;28;20372;-72
2021/11/29 01:39:43;;;;;;;7.50;1.97;;;1.70;99.90;;;;;;5067394;28;20072;-72
2021/11/29 01:42:10;;;;;;;6.93;2.07;;;1.70;99.90;;;;;;5050459;28;20509;-72
2021/11/29 01:44:37;;;;;;;8.60;2.23;;;1.80;99.90;;;;;;5065295;28;20395;-73
2021/11/29 01:47:04;;;;;;;6.50;2.10;;;1.70;99.90;;;;;;5034266;28;20052;-72
2021/11/29 01:49:30;;;;;;;4.57;1.30;;;1.70;99.90;;;;;;5036978;28;22063;-72
2021/11/29 01:51:55;;;;;;;9.40;2.00;;;1.60;99.90;;;;;;5072346;28;20091;-72
2021/11/29 01:54:22;;;;;;;6.97;1.93;;;1.60;99.90;;;;;;5063556;28;20075;-72
2021/11/29 01:56:48;;;;;;;4.67;1.40;;;1.60;99.90;;;;;;5048816;28;20817;-72
2021/11/29 01:59:14;;;;;;;5.43;1.47;;;1.50;99.90;;;;;;5065709;28;20041;-72
2021/11/29 02:01:40;;;;;;;6.27;1.53;;;1.50;99.90;;;;;;5048054;28;20040;-72
2021/11/29 02:04:08;;;;;;;7.97;1.33;;;1.60;99.90;;;;;;5080132;28;20084;-72
2021/11/29 02:06:34;;;;;;;7.87;1.67;;;1.60;99.90;;;;;;5049402;28;20124;-72
2021/11/29 02:09:02;;;;;;;8.27;1.50;;;1.70;99.90;;;;;;5048925;28;20051;-72
2021/11/29 02:11:31;;;;;;;8.23;1.93;;;1.60;99.90;;;;;;5065477;28;20041;-71
2021/11/29 02:14:00;;;;;;;6.57;1.50;;;1.70;99.90;;;;;;5055969;28;20575;-71
2021/11/29 02:16:27;;;;;;;6.93;1.20;;;1.90;99.90;;;;;;5065455;28;20555;-71
2021/11/29 02:18:54;;;;;;;5.40;1.50;;;2.00;99.90;;;;;;5065382;28;20044;-71
2021/11/29 02:21:27;;;;;;;3.33;1.00;;;2.10;99.90;;;;;;5032146;28;20045;-71
2021/11/29 02:23:58;;;;;;;4.40;1.30;;;2.00;99.90;;;;;;5066017;28;20064;-71
2021/11/29 02:26:28;;;;;;;2.90;0.80;;;1.90;99.90;;;;;;5066149;28;20055;-72
2021/11/29 02:29:00;;;;;;;4.63;1.57;;;1.90;99.90;;;;;;5059467;28;20066;-72
2021/11/29 02:31:30;;;;;;;4.90;1.53;;;1.90;99.90;;;;;;5078738;28;20052;-71
2021/11/29 02:33:56;;;;;;;4.30;1.08;;;1.80;99.90;;;;;;5066738;28;20143;-71
2021/11/29 02:36:22;;;;;;;3.40;1.03;;;1.80;99.90;;;;;;5065947;28;20151;-72
2021/11/29 02:38:48;;;;;;;3.63;1.00;;;1.80;99.90;;;;;;5048512;28;20498;-71
2021/11/29 02:41:13;;;;;;;4.13;1.00;;;1.80;99.90;;;;;;5064852;28;20033;-70
2021/11/29 02:43:39;;;;;;;2.60;0.70;;;1.80;99.90;;;;;;5064385;28;20115;-73
2021/11/29 02:46:05;;;;;;;5.17;1.17;;;1.70;99.90;;;;;;5032844;28;20560;-71
2021/11/29 02:48:45;;;;;;;5.50;1.20;;;1.70;99.90;;;;;;5065079;28;20049;-71
2021/11/29 02:51:18;;;;;;;3.37;0.90;;;1.80;99.90;;;;;;5065345;28;20050;-71
2021/11/29 02:53:44;;;;;;;3.87;0.83;;;1.80;99.90;;;;;;5065044;28;20044;-71
2021/11/29 02:56:10;;;;;;;3.47;1.00;;;1.80;99.90;;;;;;5048780;28;20059;-71
2021/11/29 02:58:40;;;;;;;3.77;0.93;;;1.80;99.90;;;;;;5064580;28;20113;-71
2021/11/29 03:01:06;;;;;;;4.65;0.80;;;1.80;99.90;;;;;;5048164;28;20093;-71
2021/11/29 03:03:31;;;;;;;4.47;1.00;;;1.80;99.90;;;;;;5046599;28;20551;-71
2021/11/29 03:05:57;;;;;;;4.23;1.23;;;1.80;99.90;;;;;;5048807;28;20036;-71
2021/11/29 03:08:23;;;;;;;4.67;1.27;;;1.80;99.90;;;;;;5049400;28;20068;-71
2021/11/29 03:10:49;;;;;;;7.87;1.30;;;1.80;99.90;;;;;;5066109;28;20564;-71
2021/11/29 03:13:15;;;;;;;4.50;1.40;;;1.90;99.90;;;;;;5050502;28;20074;-71
2021/11/29 03:15:40;;;;;;;5.80;1.57;;;1.90;99.90;;;;;;5067892;28;20047;-71
2021/11/29 03:18:06;;;;;;;5.87;1.30;;;1.90;99.90;;;;;;5084612;28;20085;-72
2021/11/29 03:20:32;;;;;;;7.73;1.80;;;1.90;99.90;;;;;;5067592;28;20040;-71
2021/11/29 03:22:58;;;;;;;7.00;1.70;;;1.90;99.90;;;;;;5065134;28;20474;-71
2021/11/29 03:25:23;;;;;;;5.70;1.33;;;2.00;99.90;;;;;;5050565;28;20048;-72
2021/11/29 03:27:49;;;;;;;8.57;1.13;;;2.10;99.90;;;;;;5049475;28;20524;-71
2021/11/29 03:30:15;;;;;;;5.83;1.60;;;2.00;99.90;;;;;;5052448;28;20080;-72
2021/11/29 03:32:41;;;;;;;5.07;1.03;;;2.10;99.90;;;;;;5048700;28;20036;-71
2021/11/29 03:35:09;;;;;;;5.17;1.20;;;2.10;99.90;;;;;;5064813;28;20046;-71
2021/11/29 03:37:36;;;;;;;6.37;1.13;;;2.10;99.90;;;;;;5064175;28;20052;-71
2021/11/29 03:40:04;;;;;;;4.87;0.90;;;2.10;99.90;;;;;;5043282;28;20032;-71
2021/11/29 03:42:30;;;;;;;5.43;1.40;;;2.00;99.90;;;;;;5081948;28;20407;-72
2021/11/29 03:44:57;;;;;;;7.30;1.23;;;2.00;99.90;;;;;;5063780;28;20048;-71
2021/11/29 03:47:23;;;;;;;10.13;1.60;;;2.10;99.90;;;;;;5067302;28;20045;-71
2021/11/29 03:49:49;;;;;;;4.60;1.23;;;2.10;99.90;;;;;;5032551;28;20040;-71
2021/11/29 03:52:18;;;;;;;7.70;1.27;;;2.20;99.90;;;;;;5065760;28;20041;-71
2021/11/29 03:54:44;;;;;;;6.07;1.10;;;2.20;99.90;;;;;;5046971;28;20085;-71
2021/11/29 03:57:09;;;;;;;8.03;1.33;;;2.30;99.90;;;;;;5087681;28;20417;-71
2021/11/29 03:59:37;;;;;;;6.77;1.37;;;2.20;99.90;;;;;;5063381;28;20074;-71
2021/11/29 04:02:03;;;;;;;6.97;1.27;;;2.20;99.90;;;;;;5052936;28;20055;-71
2021/11/29 04:04:29;;;;;;;5.17;1.03;;;2.20;99.90;;;;;;5063628;28;20044;-71
2021/11/29 04:06:55;;;;;;;6.27;1.00;;;2.20;99.90;;;;;;5083083;28;20047;-71
2021/11/29 04:09:20;;;;;;;5.13;1.10;;;2.30;99.90;;;;;;5083428;28;20032;-71
2021/11/29 04:11:46;;;;;;;6.53;1.10;;;2.30;99.90;;;;;;5074707;28;20878;-71
2021/11/29 04:14:12;;;;;;;3.03;0.80;;;2.30;99.90;;;;;;5061165;28;20052;-70
2021/11/29 04:16:39;;;;;;;4.23;0.80;;;2.40;99.90;;;;;;5071345;28;20070;-70
2021/11/29 04:19:05;;;;;;;5.20;0.80;;;2.50;99.90;;;;;;5051793;28;20040;-71
2021/11/29 04:21:31;;;;;;;7.30;1.07;;;2.50;99.90;;;;;;5077890;28;20044;-71
2021/11/29 04:23:58;;;;;;;4.13;0.90;;;2.50;99.90;;;;;;5083133;28;20123;-70
2021/11/29 04:26:28;;;;;;;4.37;0.70;;;2.60;99.90;;;;;;5055630;28;20050;-71
2021/11/29 04:28:55;;;;;;;3.53;0.83;;;2.60;99.90;;;;;;5035082;28;20534;-71
2021/11/29 04:31:21;;;;;;;4.10;0.70;;;2.60;99.90;;;;;;5059502;28;20067;-70
2021/11/29 04:33:47;;;;;;;3.10;0.60;;;2.60;99.90;;;;;;5086728;28;20750;-71
2021/11/29 04:36:13;;;;;;;3.37;0.60;;;2.50;99.90;;;;;;5061337;28;20041;-71
2021/11/29 04:38:39;;;;;;;4.53;1.03;;;2.60;99.90;;;;;;5050863;28;20128;-71
2021/11/29 04:41:05;;;;;;;2.07;0.60;;;2.70;99.90;;;;;;5053176;28;20119;-70
2021/11/29 04:43:31;;;;;;;3.53;0.60;;;2.70;99.90;;;;;;5047295;28;20041;-71
2021/11/29 04:45:57;;;;;;;3.47;0.70;;;2.70;99.90;;;;;;5082194;28;20045;-70
2021/11/29 04:48:23;;;;;;;3.90;0.87;;;2.70;99.90;;;;;;5058999;28;20048;-71
2021/11/29 04:50:49;;;;;;;4.53;0.80;;;2.80;99.90;;;;;;5049795;28;20040;-71
2021/11/29 04:53:15;;;;;;;4.70;0.70;;;2.90;99.90;;;;;;5082689;28;20066;-71
2021/11/29 04:55:40;;;;;;;5.47;0.93;;;2.80;99.90;;;;;;5057500;28;20044;-71
2021/11/29 04:58:06;;;;;;;4.93;0.80;;;2.80;99.90;;;;;;5050337;28;20051;-71
2021/11/29 05:00:35;;;;;;;5.63;0.87;;;2.90;99.90;;;;;;5036877;28;20441;-71
2021/11/29 05:03:01;;;;;;;4.33;0.97;;;2.90;99.90;;;;;;5051576;28;20045;-71
2021/11/29 05:05:27;;;;;;;4.43;1.03;;;2.80;99.90;;;;;;5067682;28;20463;-71
2021/11/29 05:07:52;;;;;;;3.20;0.90;;;2.80;99.90;;;;;;5051206;28;20084;-71
2021/11/29 05:10:18;;;;;;;3.07;0.63;;;2.90;99.90;;;;;;5068140;28;20078;-71
2021/11/29 05:12:44;;;;;;;3.63;0.80;;;2.80;99.90;;;;;;5050639;28;20131;-71
2021/11/29 05:15:10;;;;;;;2.07;0.70;;;2.80;99.90;;;;;;5067185;28;20052;-70
2021/11/29 05:17:36;;;;;;;2.90;0.60;;;2.80;99.90;;;;;;5067735;28;20072;-72
2021/11/29 05:20:03;;;;;;;3.23;0.73;;;2.80;99.90;;;;;;5051761;28;20131;-71
2021/11/29 05:22:31;;;;;;;2.57;0.60;;;2.70;99.90;;;;;;5051519;28;20040;-71
2021/11/29 05:24:57;;;;;;;2.60;0.73;;;2.70;99.90;;;;;;5038534;28;20039;-71
2021/11/29 05:27:23;;;;;;;2.90;0.60;;;2.70;99.90;;;;;;5088172;28;20047;-71
2021/11/29 05:29:49;;;;;;;2.77;0.67;;;2.60;99.90;;;;;;5068350;28;20147;-71
2021/11/29 05:32:15;;;;;;;3.13;0.70;;;2.60;99.90;;;;;;5067671;28;20546;-71
2021/11/29 05:34:41;;;;;;;5.80;2.10;;;2.60;99.90;;;;;;5017287;28;20131;-70
2021/11/29 05:37:07;;;;;;;6.50;2.40;;;2.60;99.90;;;;;;5051452;28;20053;-71
2021/11/29 05:39:33;;;;;;;8.33;3.43;;;2.50;99.90;;;;;;5067607;28;20041;-71
2021/11/29 05:42:01;;;;;;;8.87;3.80;;;2.50;99.90;;;;;;5043238;28;20051;-71
2021/11/29 05:44:27;;;;;;;10.00;4.43;;;2.50;99.90;;;;;;5063811;28;20036;-71
2021/11/29 05:46:53;;;;;;;7.90;3.80;;;2.40;99.90;;;;;;5070450;28;20055;-70
2021/11/29 05:49:19;;;;;;;7.77;3.50;;;2.30;99.90;;;;;;5088236;28;20043;-71
2021/11/29 05:51:45;;;;;;;4.07;1.80;;;2.30;99.90;;;;;;5062507;28;20392;-71
2021/11/29 05:54:10;;;;;;;5.20;1.33;;;2.30;99.90;;;;;;5062782;28;20101;-70
2021/11/29 05:56:36;;;;;;;5.70;1.80;;;2.20;99.90;;;;;;5058621;28;20040;-71
2021/11/29 05:59:02;;;;;;;4.13;1.87;;;2.20;99.90;;;;;;5085849;28;20054;-70
2021/11/29 06:01:28;;;;;;;6.90;2.57;;;2.20;99.90;;;;;;5055890;28;20040;-71
2021/11/29 06:03:54;;;;;;;5.23;2.80;;;2.20;99.90;;;;;;5038556;28;20048;-70
2021/11/29 06:06:20;;;;;;;5.10;2.87;;;2.30;99.90;;;;;;5054001;28;20033;-71
2021/11/29 06:08:46;;;;;;;6.90;3.53;;;2.30;99.90;;;;;;5036653;28;20036;-70
2021/11/29 06:11:12;;;;;;;7.07;3.60;;;2.30;99.90;;;;;;5071766;28;20129;-70
2021/11/29 06:13:38;;;;;;;5.27;2.73;;;2.30;99.90;;;;;;5067057;28;20063;-75
2021/11/29 06:16:04;;;;;;;5.07;1.90;;;2.30;99.90;;;;;;5060395;28;20134;-75
2021/11/29 06:18:30;;;;;;;3.43;1.20;;;2.20;99.90;;;;;;5073587;28;20617;-71
2021/11/29 06:20:56;;;;;;;5.43;1.53;;;2.20;99.90;;;;;;5069239;28;20426;-71
2021/11/29 06:23:22;;;;;;;5.77;1.60;;;2.20;99.90;;;;;;5073834;28;20090;-71
2021/11/29 06:25:49;;;;;;;4.70;1.83;;;2.20;99.90;;;;;;5039282;28;20131;-71
2021/11/29 06:28:15;;;;;;;3.30;1.30;;;2.20;99.90;;;;;;5047102;28;20049;-71
2021/11/29 06:30:40;;;;;;;5.07;1.87;;;2.10;99.90;;;;;;5047373;28;20498;-73
2021/11/29 06:33:06;;;;;;;6.50;2.13;;;2.10;99.90;;;;;;5064836;28;20983;-72
2021/11/29 06:35:33;;;;;;;6.70;1.90;;;2.10;99.90;;;;;;5058950;28;20043;-71
2021/11/29 06:38:05;;;;;;;4.67;2.20;;;2.10;99.90;;;;;;5061255;28;20051;-71
2021/11/29 06:40:33;;;;;;;4.93;2.37;;;2.10;99.90;;;;;;5069435;28;20037;-71
2021/11/29 06:43:02;;;;;;;7.20;2.27;;;2.10;99.90;;;;;;5075223;28;20525;-71
2021/11/29 06:45:28;;;;;;;5.20;1.80;;;2.00;99.90;;;;;;5042180;28;20040;-71
2021/11/29 06:47:54;;;;;;;4.70;2.03;;;2.00;99.90;;;;;;5034193;28;20071;-72
2021/11/29 06:50:21;;;;;;;5.70;2.37;;;2.00;99.90;;;;;;5067633;28;20498;-71
2021/11/29 06:52:48;;;;;;;5.93;2.27;;;2.00;99.90;;;;;;5064768;28;20518;-71
2021/11/29 06:55:15;;;;;;;6.70;2.53;;;1.90;99.90;;;;;;5063001;28;20043;-71
2021/11/29 06:57:44;;;;;;;6.23;2.63;;;1.90;99.90;;;;;;5051336;28;20048;-71
2021/11/29 07:00:12;;;;;;;8.67;3.67;;;2.00;99.90;;;;;;5042862;28;20043;-71
2021/11/29 07:02:41;;;;;;;9.87;4.87;;;2.00;99.90;;;;;;5068027;28;20040;-71
2021/11/29 07:05:08;;;;;;;11.70;5.90;;;1.90;99.90;;;;;;5059379;28;20052;-71
2021/11/29 07:07:34;;;;;;;8.23;4.97;;;1.90;99.90;;;;;;5075064;28;20454;-71
2021/11/29 07:10:00;;;;;;;7.93;4.10;;;1.90;99.90;;;;;;5067558;28;20048;-70
2021/11/29 07:12:26;;;;;;;5.37;3.00;;;1.80;99.90;;;;;;5075859;28;20102;-70
2021/11/29 07:14:52;;;;;;;5.03;2.57;;;1.80;99.90;;;;;;5066008;28;20486;-70
2021/11/29 07:17:18;;;;;;;5.83;2.60;;;1.80;99.90;;;;;;5066972;28;20040;-71
2021/11/29 07:19:44;;;;;;;6.93;3.60;;;1.80;99.90;;;;;;5067458;28;20398;-74
2021/11/29 07:22:09;;;;;;;6.30;3.77;;;1.80;99.90;;;;;;5061704;28;20048;-74
2021/11/29 07:24:35;;;;;;;6.73;3.40;;;1.70;99.90;;;;;;5062821;28;20052;-74
2021/11/29 07:27:01;;;;;;;7.17;3.37;;;1.70;99.90;;;;;;5066438;28;20059;-77
2021/11/29 07:29:27;;;;;;;7.73;3.87;;;1.70;99.90;;;;;;5058019;28;20055;-77
2021/11/29 07:31:53;;;;;;;5.63;2.97;;;1.70;99.90;;;;;;5060847;28;20043;-76
2021/11/29 07:34:19;;;;;;;7.07;3.87;;;1.70;99.90;;;;;;5068663;28;20052;-77
2021/11/29 07:36:45;;;;;;;7.30;3.73;;;1.60;99.90;;;;;;5057555;28;20045;-77
2021/11/29 07:39:11;;;;;;;4.70;2.80;;;1.60;99.90;;;;;;5082921;28;20066;-77
2021/11/29 07:41:37;;;;;;;6.00;3.17;;;1.50;99.90;;;;;;5057399;28;20040;-73
2021/11/29 07:44:04;;;;;;;5.13;3.00;;;1.40;99.90;;;;;;5051105;28;20139;-73
2021/11/29 07:46:30;;;;;;;6.20;4.03;;;1.40;99.90;;;;;;5053183;28;20067;-73
2021/11/29 07:48:57;;;;;;;6.33;4.07;;;1.30;99.90;;;;;;5065569;28;20044;-73
2021/11/29 07:51:23;;;;;;;7.03;4.10;;;1.30;99.90;;;;;;5039116;28;20083;-73
2021/11/29 07:53:48;;;;;;;7.73;4.60;;;1.30;99.90;;;;;;5056363;28;20519;-73
2021/11/29 07:56:14;;;;;;;7.30;4.10;;;1.20;99.90;;;;;;5079194;28;20510;-73
2021/11/29 07:58:40;;;;;;;10.33;6.03;;;1.20;99.90;;;;;;5057417;28;20075;-74
2021/11/29 08:01:06;;;;;;;7.67;4.53;;;1.10;99.90;;;;;;5072613;28;20044;-73
2021/11/29 08:03:32;;;;;;;8.67;5.23;;;1.10;99.90;;;;;;5059682;28;20771;-73
2021/11/29 08:05:58;;;;;;;35.60;7.23;;;1.10;99.90;;;;;;5036388;28;20048;-73
2021/11/29 08:08:24;;;;;;;13.40;7.90;;;1.00;99.90;;;;;;5081720;28;20256;-73
2021/11/29 08:10:50;;;;;;;10.73;8.40;;;1.00;99.90;;;;;;5085306;28;20032;-73
2021/11/29 08:13:16;;;;;;;22.40;13.83;;;1.00;99.90;;;;;;5055344;28;21291;-73
2021/11/29 08:15:42;;;;;;;221.27;31.57;;;1.00;99.90;;;;;;5053734;28;20079;-72
2021/11/29 08:18:09;;;;;;;14.37;9.73;;;1.00;99.90;;;;;;5071361;28;20052;-74
2021/11/29 08:20:35;;;;;;;10.43;6.80;;;1.00;99.90;;;;;;5056795;28;20048;-73
2021/11/29 08:23:01;;;;;;;7.17;5.53;;;1.00;99.90;;;;;;5051914;28;20056;-73
2021/11/29 08:25:27;;;;;;;10.03;6.20;;;1.00;99.90;;;;;;5072471;28;20040;-77
2021/11/29 08:27:53;;;;;;;16.20;9.13;;;1.00;99.90;;;;;;5067974;28;20059;-77
2021/11/29 08:30:22;;;;;;;35.00;14.30;;;1.00;99.90;;;;;;5053550;28;20101;-76
2021/11/29 08:32:48;;;;;;;27.90;12.73;;;1.00;99.90;;;;;;5063436;28;20044;-76
2021/11/29 08:35:16;;;;;;;41.50;12.07;;;1.00;99.90;;;;;;5081326;28;20437;-76
2021/11/29 08:37:46;;;;;;;20.97;10.40;;;1.00;99.90;;;;;;5067864;28;20044;-77
2021/11/29 08:40:13;;;;;;;11.10;8.50;;;1.00;99.90;;;;;;5060072;28;20032;-73
2021/11/29 08:42:39;;;;;;;12.87;8.40;;;1.00;99.90;;;;;;5072159;28;20044;-73
2021/11/29 08:45:05;;;;;;;14.13;8.13;;;1.10;99.90;;;;;;5071533;28;20047;-73
2021/11/29 08:47:31;;;;;;;10.53;7.60;;;1.10;99.90;;;;;;5059559;28;20036;-73
2021/11/29 08:49:57;;;;;;;16.83;9.73;;;1.20;99.90;;;;;;5051362;28;20050;-73
2021/11/29 08:52:26;;;;;;;13.73;9.87;;;1.20;99.90;;;;;;5048640;28;20080;-73
2021/11/29 08:54:52;;;;;;;15.83;10.93;;;1.30;99.90;;;;;;5061496;28;20032;-73
2021/11/29 08:57:18;;;;;;;21.43;13.07;;;1.30;99.90;;;;;;5071029;28;20120;-73
2021/11/29 08:59:44;;;;;;;21.77;15.33;;;1.30;99.90;;;;;;5070949;28;20044;-73
2021/11/29 09:02:11;;;;;;;13.80;10.17;;;1.40;99.90;;;;;;5036207;28;20052;-73
2021/11/29 09:04:37;;;;;;;18.60;16.40;;;1.40;99.90;;;;;;5052986;28;20110;-73
2021/11/29 09:07:09;;;;;;;16.77;15.07;;;1.40;99.90;;;;;;5028819;28;20059;-73
2021/11/29 09:09:34;;;;;;;14.10;11.07;;;1.50;99.90;;;;;;5048606;28;20047;-70
2021/11/29 09:12:01;;;;;;;13.03;9.63;;;1.50;99.90;;;;;;5053104;28;20040;-71
2021/11/29 09:14:28;;;;;;;12.73;10.80;;;1.50;99.90;;;;;;5071446;28;20340;-71
2021/11/29 09:16:57;;;;;;;14.60;12.03;;;1.60;99.90;;;;;;5061169;28;20457;-72
2021/11/29 09:19:24;;;;;;;12.67;10.87;;;1.60;99.90;;;;;;5049972;28;20051;-71
2021/11/29 09:21:50;;;;;;;11.30;9.33;;;1.70;99.90;;;;;;5049390;28;20376;-71
2021/11/29 09:24:16;;;;;;;14.53;9.13;;;1.70;99.90;;;;;;5054609;28;20050;-71
2021/11/29 09:26:42;;;;;;;13.57;10.00;;;1.70;99.90;;;;;;5065746;28;20067;-71
2021/11/29 09:29:07;;;;;;;12.53;10.23;;;1.80;99.90;;;;;;5034973;28;20141;-70
2021/11/29 09:31:33;;;;;;;13.57;9.83;;;1.80;99.90;;;;;;5070801;28;20102;-70
2021/11/29 09:33:59;;;;;;;14.80;10.87;;;1.90;99.90;;;;;;5062076;28;20048;-71
2021/11/29 09:36:25;;;;;;;13.80;9.57;;;1.90;99.90;;;;;;5055022;28;20106;-70
2021/11/29 09:38:51;;;;;;;14.33;11.80;;;2.00;99.90;;;;;;5052319;28;20044;-71
2021/11/29 09:41:19;;;;;;;16.33;12.87;;;2.00;99.90;;;;;;5038096;28;20445;-71
2021/11/29 09:43:45;;;;;;;17.63;13.07;;;2.10;99.90;;;;;;5069516;28;20570;-71
2021/11/29 09:46:11;;;;;;;20.27;16.27;;;2.30;99.90;;;;;;5062962;28;20056;-71
2021/11/29 09:48:37;;;;;;;17.87;14.00;;;2.40;99.90;;;;;;5062281;28;20067;-71
2021/11/29 09:51:03;;;;;;;18.50;14.27;;;2.50;99.90;;;;;;5052033;28;20382;-70
2021/11/29 09:53:30;;;;;;;16.00;11.40;;;2.60;99.90;;;;;;5066903;28;20526;-71
2021/11/29 09:55:59;;;;;;;19.20;11.23;;;2.70;99.90;;;;;;5050336;28;20047;-71
2021/11/29 09:58:25;;;;;;;15.23;11.43;;;2.70;99.90;;;;;;5068204;28;20048;-75
2021/11/29 10:00:55;;;;;;;14.27;10.70;;;2.90;99.90;;;;;;5050696;28;20403;-71
2021/11/29 10:03:21;;;;;;;12.40;9.50;;;2.90;99.90;;;;;;5066996;28;20602;-71
2021/11/29 10:05:51;;;;;;;16.90;10.93;;;3.00;99.90;;;;;;5073357;28;20071;-71
2021/11/29 10:08:30;;;;;;;13.30;9.80;;;3.10;99.90;;;;;;5079004;28;20048;-71
2021/11/29 10:11:06;;;;;;;13.33;10.33;;;3.20;99.90;;;;;;5080821;28;20044;-71
2021/11/29 10:13:47;;;;;;;14.93;10.97;;;3.20;99.90;;;;;;5058453;28;20674;-70
2021/11/29 10:16:30;;;;;;;12.00;8.90;;;3.30;99.90;;;;;;5070456;28;20398;-71
2021/11/29 10:18:56;;;;;;;10.47;8.50;;;3.40;99.90;;;;;;5055857;28;20048;-70
2021/11/29 10:21:22;;;;;;;11.63;8.63;;;3.50;99.90;;;;;;5055972;28;20478;-71
2021/11/29 10:23:50;;;;;;;12.03;9.07;;;3.50;99.90;;;;;;5080269;28;20028;-70
2021/11/29 10:26:29;;;;;;;14.07;9.70;;;3.50;99.90;;;;;;5047983;28;20052;-70
2021/11/29 10:29:01;;;;;;;16.20;10.63;;;3.60;99.90;;;;;;5056316;28;20052;-70
2021/11/29 10:31:45;;;;;;;13.43;9.13;;;3.70;99.90;;;;;;5052204;28;20048;-70
2021/11/29 10:34:13;;;;;;;10.20;7.70;;;3.70;99.90;;;;;;5067432;28;20044;-70
2021/11/29 10:36:57;;;;;;;13.70;9.40;;;3.80;99.90;;;;;;5052482;28;20111;-71
2021/11/29 10:39:25;;;;;;;11.30;8.50;;;3.80;99.90;;;;;;5067471;28;20048;-70
2021/11/29 10:41:59;;;;;;;12.07;9.57;;;3.90;99.90;;;;;;5052624;28;20037;-70
2021/11/29 10:44:37;;;;;;;11.47;8.93;;;3.90;99.90;;;;;;5065883;28;20115;-71
2021/11/29 10:47:09;;;;;;;11.87;8.20;;;3.90;99.90;;;;;;5049189;28;20128;-71
2021/11/29 10:49:38;;;;;;;11.10;8.60;;;3.90;99.90;;;;;;5070456;28;20138;-70
2021/11/29 10:52:05;;;;;;;12.37;8.80;;;4.00;99.90;;;;;;5058738;28;20050;-70
2021/11/29 10:54:33;;;;;;;11.73;8.27;;;4.00;99.90;;;;;;5049098;28;20391;-70
2021/11/29 10:57:00;;;;;;;12.80;8.73;;;3.90;99.90;;;;;;5049407;28;20083;-71
2021/11/29 10:59:29;;;;;;;11.57;8.27;;;4.00;99.90;;;;;;5063060;28;20044;-70
2021/11/29 11:02:01;;;;;;;10.47;7.83;;;4.10;99.90;;;;;;5060944;28;20110;-70
2021/11/29 11:04:35;;;;;;;11.07;8.10;;;4.10;99.90;;;;;;5054386;28;20056;-71
2021/11/29 11:07:08;;;;;;;12.00;8.70;;;4.10;99.90;;;;;;5071489;28;20044;-70
2021/11/29 11:09:39;;;;;;;10.57;7.77;;;4.10;99.90;;;;;;5069016;28;20592;-70
2021/11/29 11:12:09;;;;;;;11.73;7.97;;;4.20;99.90;;;;;;5078787;28;20047;-70
2021/11/29 11:14:40;;;;;;;11.07;7.87;;;4.10;99.90;;;;;;5071820;28;20062;-70
2021/11/29 11:17:08;;;;;;;10.53;8.30;;;4.20;99.90;;;;;;5049234;28;20045;-70
2021/11/29 11:19:40;;;;;;;11.53;8.30;;;4.20;99.90;;;;;;5053889;28;20608;-70
2021/11/29 11:22:14;;;;;;;12.87;8.60;;;4.20;99.90;;;;;;5067488;28;20119;-70
2021/11/29 11:25:02;;;;;;;10.77;8.00;;;4.30;99.90;;;;;;5055893;28;20388;-70
2021/11/29 11:27:34;;;;;;;11.70;7.93;;;4.30;99.90;;;;;;5071065;28;20053;-70
2021/11/29 11:30:14;;;;;;;9.43;7.73;;;4.40;99.90;;;;;;5075798;28;20725;-70
2021/11/29 11:32:47;;;;;;;;;;;4.50;99.90;;;;;;5060845;28;20128;-70
2021/11/29 11:35:18;;;;;;;11.30;8.23;;;4.50;99.90;;;;;;5070161;28;19946;-70
2021/11/29 11:37:53;;;;;;;11.87;9.00;;;4.50;99.90;;;;;;5080213;28;20513;-70
2021/11/29 11:40:31;;;;;;;10.47;7.70;;;4.60;99.90;;;;;;5069720;28;20114;-70
2021/11/29 11:42:58;;;;;;;10.83;8.60;;;4.60;99.90;;;;;;5061095;28;20145;-71
2021/11/29 11:45:28;;;;;;;10.63;7.13;;;4.70;99.90;;;;;;5057218;28;20566;-70
2021/11/29 11:47:58;;;;;;;10.65;8.23;;;4.70;99.90;;;;;;5063674;28;20047;-70
2021/11/29 11:50:27;;;;;;;8.50;7.07;;;4.70;99.90;;;;;;5077408;28;20340;-71
2021/11/29 11:52:54;;;;;;;9.23;7.07;;;4.80;99.90;;;;;;5055463;28;20051;-71
2021/11/29 11:55:31;;;;;;;8.77;7.00;;;4.80;99.90;;;;;;5054668;28;20044;-71
2021/11/29 11:57:59;;;;;;;9.50;7.13;;;4.90;99.90;;;;;;5079276;28;20055;-70
2021/11/29 12:00:53;;;;;;;8.47;7.10;;;4.90;99.90;;;;;;5087075;28;20458;-70
2021/11/29 12:03:33;;;;;;;9.83;7.33;;;4.90;99.90;;;;;;5060542;28;20558;-70
2021/11/29 12:06:05;;;;;;;9.10;6.87;;;4.90;99.90;;;;;;5068292;28;20499;-70
2021/11/29 12:08:47;;;;;;;10.67;7.60;;;5.00;99.90;;;;;;5068623;28;20333;-70
2021/11/29 12:11:22;;;;;;;7.60;6.80;;;5.00;99.90;;;;;;5068542;28;20074;-70
2021/11/29 12:13:50;;;;;;;8.47;7.30;;;5.00;99.90;;;;;;5067621;28;20040;-71
2021/11/29 12:16:30;;;;;;;9.10;7.27;;;5.10;99.90;;;;;;5068308;28;20479;-71
2021/11/29 12:18:55;;;;;;;8.88;7.30;;;5.20;99.90;;;;;;5067965;28;20048;-70
2021/11/29 12:21:27;;;;;;;8.93;6.30;;;5.10;99.90;;;;;;5056918;28;20528;-71
2021/11/29 12:24:12;;;;;;;7.37;5.97;;;5.10;99.90;;;;;;5067221;28;20617;-71
2021/11/29 12:26:44;;;;;;;8.77;6.80;;;5.00;99.90;;;;;;5077142;28;20064;-71
2021/11/29 12:29:22;;;;;;;8.03;6.40;;;5.00;99.90;;;;;;5068789;28;20092;-71
2021/11/29 12:32:14;;;;;;;10.13;6.37;;;5.00;99.90;;;;;;5051261;28;20052;-71
2021/11/29 12:34:46;;;;;;;8.73;6.70;;;5.00;99.90;;;;;;5051795;28;20044;-71
2021/11/29 12:37:20;;;;;;;8.63;6.47;;;5.00;99.90;;;;;;5052115;28;20052;-72
2021/11/29 12:39:48;;;;;;;9.27;6.27;;;4.90;99.90;;;;;;5072707;28;20398;-70
2021/11/29 12:42:22;;;;;;;9.37;7.17;;;5.00;99.90;;;;;;5055895;28;20048;-70
2021/11/29 12:44:57;;;;;;;7.87;6.03;;;4.90;99.90;;;;;;5051015;28;20033;-71
2021/11/29 12:47:30;;;;;;;9.13;6.40;;;4.90;99.90;;;;;;5068239;28;20518;-70
2021/11/29 12:50:02;;;;;;;8.33;5.93;;;4.90;99.90;;;;;;5053161;28;20105;-70
2021/11/29 12:52:39;;;;;;;7.73;6.10;;;4.90;99.90;;;;;;5057071;28;20078;-71
2021/11/29 12:55:29;;;;;;;7.53;5.53;;;4.90;99.90;;;;;;5071139;28;20048;-70
2021/11/29 12:58:07;;;;;;;7.70;5.47;;;4.90;99.90;;;;;;5070325;28;20525;-70